createdAt,value
2017-12-15T00:01:25.870Z,98944.33
2017-12-15T00:03:53.377Z,98946.44
2017-12-15T00:06:20.886Z,98942.92
2017-12-15T00:08:48.401Z,98944.24
2017-12-15T00:11:15.911Z,98950.14
2017-12-15T00:13:43.429Z,98949.59
2017-12-15T00:16:10.937Z,98948.38
2017-12-15T00:18:38.443Z,98950.77
2017-12-15T00:21:05.955Z,98958.07
2017-12-15T00:23:33.468Z,98950.89
2017-12-15T00:26:00.988Z,98945.91
2017-12-15T00:28:29.277Z,98957.87
2017-12-15T00:30:56.806Z,98951.47
2017-12-15T00:33:24.342Z,98957.83
2017-12-15T00:35:51.846Z,98962.31
2017-12-15T00:38:19.363Z,98953.84
2017-12-15T00:40:46.877Z,98949.06
2017-12-15T00:43:14.387Z,98940.98
2017-12-15T00:45:41.941Z,98933.70
2017-12-15T00:48:09.454Z,98933.41
2017-12-15T00:50:36.971Z,98931.27
2017-12-15T00:53:04.491Z,98932.10
2017-12-15T00:55:32.615Z,98939.16
2017-12-15T00:58:00.137Z,98932.34
2017-12-15T01:00:27.645Z,98932.42
2017-12-15T01:02:55.151Z,98928.69
2017-12-15T01:05:22.663Z,98925.84
2017-12-15T01:07:50.175Z,98934.23
2017-12-15T01:10:17.686Z,98933.34
2017-12-15T01:12:45.211Z,98939.02
2017-12-15T01:15:12.738Z,98941.55
2017-12-15T01:17:40.262Z,98950.66
2017-12-15T01:20:07.772Z,98948.44
2017-12-15T01:22:35.295Z,98946.30
2017-12-15T02:46:59.848Z,98936.71
2017-12-15T02:49:27.379Z,98938.00
2017-12-15T02:51:54.919Z,98928.96
2017-12-15T02:54:22.450Z,98931.83
2017-12-15T02:56:49.994Z,98928.28
2017-12-15T02:59:17.523Z,98929.94
2017-12-15T03:01:45.051Z,98930.25
2017-12-15T03:04:12.574Z,98931.55
2017-12-15T03:06:40.095Z,98941.03
2017-12-15T03:09:07.617Z,98936.90
2017-12-15T03:11:35.136Z,98937.89
2017-12-15T03:14:02.658Z,98940.61
2017-12-15T03:16:30.170Z,98944.94
2017-12-15T03:18:57.673Z,98947.61
2017-12-15T03:21:25.209Z,98938.36
2017-12-15T03:23:52.779Z,98939.28
2017-12-15T03:26:20.374Z,98935.25
2017-12-15T03:28:47.966Z,98941.89
2017-12-15T03:31:15.507Z,98946.75
2017-12-15T03:33:43.037Z,98933.47
2017-12-15T03:36:10.559Z,98930.57
2017-12-15T03:38:38.121Z,98935.68
2017-12-15T03:41:05.661Z,98935.28
2017-12-15T03:43:33.174Z,98931.42
2017-12-15T03:46:00.694Z,98931.11
2017-12-15T03:48:28.282Z,98932.94
2017-12-15T03:50:55.789Z,98928.04
2017-12-15T03:53:23.304Z,98934.19
2017-12-15T03:55:50.889Z,98931.18
2017-12-15T03:58:18.465Z,98932.14
2017-12-15T04:00:45.961Z,98926.19
2017-12-15T04:03:13.488Z,98929.97
2017-12-15T04:05:41.008Z,98930.72
2017-12-15T04:08:08.545Z,98929.37
2017-12-15T04:10:36.050Z,98928.73
2017-12-15T04:13:03.549Z,98924.86
2017-12-15T04:15:31.077Z,98920.26
2017-12-15T04:17:58.696Z,98922.44
2017-12-15T04:20:26.206Z,98921.55
2017-12-15T04:22:53.725Z,98922.41
2017-12-15T04:25:21.241Z,98931.73
2017-12-15T04:27:48.786Z,98924.05
2017-12-15T04:30:16.309Z,98921.41
2017-12-15T04:32:43.828Z,98917.58
2017-12-15T04:35:11.363Z,98915.80
2017-12-15T04:37:38.865Z,98916.30
2017-12-15T04:40:06.410Z,98915.11
2017-12-15T04:42:33.928Z,98916.40
2017-12-15T04:45:01.430Z,98914.76
2017-12-15T04:47:28.963Z,98918.30
2017-12-15T04:49:56.494Z,98919.58
2017-12-15T04:52:24.003Z,98921.25
2017-12-15T04:54:51.554Z,98921.25
2017-12-15T04:57:19.078Z,98924.72
2017-12-15T04:59:46.589Z,98923.91
2017-12-15T05:02:14.154Z,98924.08
2017-12-15T05:04:41.655Z,98927.94
2017-12-15T05:07:09.157Z,98923.33
2017-12-15T05:09:36.663Z,98927.26
2017-12-15T05:12:04.183Z,98932.80
2017-12-15T05:14:31.696Z,98919.44
2017-12-15T05:16:59.237Z,98919.26
2017-12-15T05:19:26.802Z,98924.40
2017-12-15T05:21:54.315Z,98925.11
2017-12-15T05:24:21.873Z,98918.31
2017-12-15T05:26:49.405Z,98927.36
2017-12-15T05:29:16.929Z,98918.45
2017-12-15T05:31:44.463Z,98918.95
2017-12-15T05:34:12.036Z,98918.63
2017-12-15T05:36:39.605Z,98922.87
2017-12-15T05:39:07.200Z,98919.52
2017-12-15T05:41:34.751Z,98925.95
2017-12-15T05:44:02.268Z,98925.83
2017-12-15T05:46:29.774Z,98929.88
2017-12-15T05:48:57.283Z,98926.83
2017-12-15T05:51:24.840Z,98937.34
2017-12-15T05:53:52.381Z,98938.44
2017-12-15T05:56:19.920Z,98934.40
2017-12-15T05:58:47.426Z,98935.26
2017-12-15T06:01:14.926Z,98938.26
2017-12-15T06:03:42.426Z,98928.06
2017-12-15T06:06:09.986Z,98934.53
2017-12-15T06:08:37.547Z,98934.06
2017-12-15T06:11:05.131Z,98942.23
2017-12-15T06:13:32.677Z,98945.58
2017-12-15T06:16:00.199Z,98954.77
2017-12-15T06:18:27.758Z,98955.51
2017-12-15T06:20:55.306Z,98959.44
2017-12-15T06:23:22.838Z,98951.86
2017-12-15T06:25:50.388Z,98955.56
2017-12-15T06:28:17.917Z,98955.67
2017-12-15T06:30:45.769Z,98952.17
2017-12-15T06:33:13.293Z,98956.03
2017-12-15T06:35:40.801Z,98959.05
2017-12-15T06:38:08.334Z,98958.98
2017-12-15T06:40:35.870Z,98962.80
2017-12-15T06:43:03.400Z,98967.08
2017-12-15T06:45:30.927Z,98963.41
2017-12-15T06:47:58.457Z,98968.62
2017-12-15T06:50:26.028Z,98965.76
2017-12-15T06:52:53.538Z,98960.62
2017-12-15T06:55:21.045Z,98969.09
2017-12-15T06:57:48.586Z,98974.85
2017-12-15T07:00:16.281Z,98976.33
2017-12-15T07:02:43.827Z,98975.86
2017-12-15T07:05:11.357Z,98977.97
2017-12-15T07:07:38.885Z,98977.54
2017-12-15T07:10:06.407Z,98990.06
2017-12-15T07:12:33.932Z,98991.63
2017-12-15T07:15:01.449Z,98995.66
2017-12-15T07:17:28.969Z,99005.41
2017-12-15T07:19:56.494Z,99021.55
2017-12-15T07:22:24.019Z,99010.92
2017-12-15T07:24:51.543Z,99004.73
2017-12-15T07:27:19.065Z,99002.37
2017-12-15T07:29:46.617Z,99000.63
2017-12-15T07:32:14.137Z,99003.81
2017-12-15T07:34:41.661Z,99008.84
2017-12-15T07:37:09.182Z,99011.20
2017-12-15T07:39:36.702Z,99009.81
2017-12-15T07:42:04.230Z,99014.25
2017-12-15T07:44:31.764Z,99011.03
2017-12-15T07:46:59.273Z,99006.09
2017-12-15T07:49:26.786Z,99007.34
2017-12-15T07:51:54.321Z,99024.36
2017-12-15T07:54:21.914Z,99028.16
2017-12-15T07:56:49.430Z,99030.30
2017-12-15T07:59:16.965Z,99030.86
2017-12-15T08:01:44.538Z,99034.43
2017-12-15T08:04:12.060Z,99035.83
2017-12-15T08:06:39.602Z,99040.19
2017-12-15T08:09:07.142Z,99028.52
2017-12-15T08:11:34.679Z,99027.25
2017-12-15T08:14:02.218Z,99025.33
2017-12-15T08:16:29.733Z,99029.83
2017-12-15T08:18:57.236Z,99034.94
2017-12-15T08:21:24.766Z,99033.98
2017-12-15T08:23:52.279Z,99032.42
2017-12-15T08:26:19.789Z,99039.05
2017-12-15T08:28:47.299Z,99045.20
2017-12-15T08:31:14.827Z,99044.89
2017-12-15T08:33:42.366Z,99051.41
2017-12-15T08:36:09.877Z,99054.75
2017-12-15T08:38:37.390Z,99057.52
2017-12-15T08:41:04.919Z,99062.08
2017-12-15T08:43:32.440Z,99061.38
2017-12-15T08:46:00.122Z,99067.80
2017-12-15T08:48:27.651Z,99078.02
2017-12-15T08:50:55.168Z,99081.98
2017-12-15T08:53:22.761Z,99087.14
2017-12-15T08:55:50.246Z,99090.53
2017-12-15T08:58:17.774Z,99097.39
2017-12-15T09:00:45.309Z,99103.27
2017-12-15T09:03:12.853Z,99094.78
2017-12-15T09:05:40.384Z,99105.06
2017-12-15T09:08:07.918Z,99105.03
2017-12-15T09:10:35.446Z,99113.99
2017-12-15T09:13:02.979Z,99106.20
2017-12-15T09:15:30.506Z,99116.69
2017-12-15T09:17:58.034Z,99119.48
2017-12-15T09:20:25.570Z,99120.45
2017-12-15T09:22:53.112Z,99124.02
2017-12-15T09:25:20.654Z,99121.52
2017-12-15T09:27:48.178Z,99122.36
2017-12-15T09:30:15.732Z,99128.61
2017-12-15T09:32:43.277Z,99134.34
2017-12-15T09:35:10.810Z,99135.85
2017-12-15T09:37:38.350Z,99150.81
2017-12-15T09:40:05.891Z,99151.09
2017-12-15T09:42:33.422Z,99147.23
2017-12-15T09:45:00.944Z,99143.73
2017-12-15T09:47:28.484Z,99141.50
2017-12-15T09:49:56.031Z,99149.53
2017-12-15T09:52:23.593Z,99148.64
2017-12-15T09:54:51.132Z,99155.66
2017-12-15T09:57:18.686Z,99156.92
2017-12-15T09:59:46.226Z,99156.34
2017-12-15T10:02:13.762Z,99156.84
2017-12-15T10:04:41.304Z,99159.85
2017-12-15T10:07:08.837Z,99165.92
2017-12-15T10:09:36.370Z,99166.18
2017-12-15T10:12:04.738Z,99165.59
2017-12-15T10:14:32.278Z,99169.08
2017-12-15T10:16:59.837Z,99170.33
2017-12-15T10:19:27.376Z,99175.48
2017-12-15T10:21:54.913Z,99167.28
2017-12-15T10:24:22.460Z,99169.95
2017-12-15T10:26:49.977Z,99174.45
2017-12-15T10:29:17.514Z,99171.92
2017-12-15T10:31:45.033Z,99170.00
2017-12-15T10:34:12.575Z,99168.77
2017-12-15T10:36:40.115Z,99175.81
2017-12-15T10:39:07.649Z,99178.48
2017-12-15T10:41:35.177Z,99186.42
2017-12-15T10:44:02.754Z,99182.03
2017-12-15T10:46:30.269Z,99184.06
2017-12-15T10:48:57.803Z,99186.55
2017-12-15T10:51:25.346Z,99192.78
2017-12-15T10:53:52.882Z,99190.12
2017-12-15T10:56:20.418Z,99178.87
2017-12-15T10:58:47.960Z,99185.16
2017-12-15T11:01:15.489Z,99179.86
2017-12-15T11:03:43.058Z,99189.99
2017-12-15T11:06:10.590Z,99206.48
2017-12-15T11:08:38.130Z,99197.45
2017-12-15T11:11:05.658Z,99195.41
2017-12-15T11:13:33.194Z,99201.62
2017-12-15T11:16:00.747Z,99199.87
2017-12-15T11:18:28.285Z,99212.50
2017-12-15T11:20:55.841Z,99210.40
2017-12-15T11:23:23.386Z,99219.20
2017-12-15T11:25:50.933Z,99207.08
2017-12-15T11:28:18.471Z,99218.63
2017-12-15T11:30:46.048Z,99226.80
2017-12-15T11:33:13.574Z,99224.58
2017-12-15T11:35:41.801Z,99225.13
2017-12-15T11:38:09.350Z,99225.89
2017-12-15T11:40:36.886Z,99232.05
2017-12-15T11:43:04.421Z,99237.39
2017-12-15T11:45:31.955Z,99237.77
2017-12-15T11:47:59.498Z,99240.98
2017-12-15T11:50:27.038Z,99239.81
2017-12-15T11:52:54.577Z,99248.81
2017-12-15T11:55:22.118Z,99247.16
2017-12-15T11:57:49.654Z,99249.85
2017-12-15T12:00:17.181Z,99256.26
2017-12-15T12:02:44.715Z,99262.31
2017-12-15T12:05:12.250Z,99263.03
2017-12-15T12:07:39.791Z,99264.82
2017-12-15T12:10:07.325Z,99267.40
2017-12-15T12:12:34.858Z,99276.99
2017-12-15T12:15:02.391Z,99277.02
2017-12-15T12:17:29.925Z,99280.88
2017-12-15T12:19:57.465Z,99281.22
2017-12-15T12:22:24.998Z,99282.00
2017-12-15T12:24:52.535Z,99278.84
2017-12-15T12:27:20.056Z,99284.22
2017-12-15T12:29:47.598Z,99284.25
2017-12-15T12:32:15.127Z,99290.12
2017-12-15T12:34:42.667Z,99296.95
2017-12-15T12:37:10.207Z,99296.69
2017-12-15T12:39:37.742Z,99302.49
2017-12-15T12:42:05.282Z,99305.66
2017-12-15T12:44:32.814Z,99309.14
2017-12-15T12:47:00.347Z,99314.91
2017-12-15T12:49:27.896Z,99310.11
2017-12-15T12:51:55.437Z,99309.70
2017-12-15T12:54:22.978Z,99316.23
2017-12-15T12:56:50.510Z,99315.99
2017-12-15T12:59:18.041Z,99325.80
2017-12-15T13:01:45.595Z,99327.15
2017-12-15T13:04:13.126Z,99331.91
2017-12-15T13:06:40.665Z,99338.69
2017-12-15T13:09:08.190Z,99338.25
2017-12-15T13:11:35.716Z,99332.51
2017-12-15T13:14:03.256Z,99339.52
2017-12-15T13:16:30.803Z,99343.99
2017-12-15T13:18:58.335Z,99340.64
2017-12-15T13:21:25.862Z,99346.38
2017-12-15T13:23:53.394Z,99344.66
2017-12-15T13:26:20.926Z,99346.11
2017-12-15T13:28:48.475Z,99348.19
2017-12-15T13:31:16.060Z,99348.62
2017-12-15T13:33:43.596Z,99351.14
2017-12-15T13:36:11.134Z,99348.42
2017-12-15T13:38:38.673Z,99358.31
2017-12-15T13:41:06.214Z,99357.88
2017-12-15T13:43:33.758Z,99370.01
2017-12-15T13:46:01.289Z,99373.42
2017-12-15T13:48:28.842Z,99380.00
2017-12-15T13:50:56.383Z,99378.23
2017-12-15T13:53:23.938Z,99385.13
2017-12-15T13:55:52.343Z,99391.27
2017-12-15T13:58:19.869Z,99385.38
2017-12-15T14:00:47.401Z,99398.41
2017-12-15T14:03:14.934Z,99399.02
2017-12-15T14:05:42.474Z,99400.68
2017-12-15T14:08:10.022Z,99401.11
2017-12-15T14:10:37.574Z,99410.14
2017-12-15T14:13:05.114Z,99421.16
2017-12-15T14:15:32.676Z,99418.88
2017-12-15T14:18:00.265Z,99421.77
2017-12-15T14:20:27.826Z,99428.17
2017-12-15T14:22:55.407Z,99425.48
2017-12-15T14:25:22.950Z,99434.90
2017-12-15T14:27:50.500Z,99447.94
2017-12-15T14:30:18.071Z,99444.11
2017-12-15T14:32:45.600Z,99443.84
2017-12-15T14:35:13.178Z,99442.89
2017-12-15T14:37:40.721Z,99450.77
2017-12-15T14:40:08.256Z,99450.70
2017-12-15T14:42:35.798Z,99453.34
2017-12-15T14:45:03.330Z,99457.41
2017-12-15T14:47:30.874Z,99456.07
2017-12-15T14:49:58.487Z,99464.64
2017-12-15T14:52:26.037Z,99470.19
2017-12-15T14:54:53.594Z,99471.57
2017-12-15T14:57:21.142Z,99467.36
2017-12-15T14:59:48.690Z,99468.98
2017-12-15T15:02:16.224Z,99467.50
2017-12-15T15:04:43.756Z,99474.55
2017-12-15T15:07:11.290Z,99479.52
2017-12-15T15:09:38.835Z,99475.11
2017-12-15T15:12:06.380Z,99485.72
2017-12-15T15:14:33.927Z,99479.22
2017-12-15T15:17:01.482Z,99479.62
2017-12-15T15:19:29.020Z,99483.59
2017-12-15T15:21:56.562Z,99481.84
2017-12-15T15:24:24.104Z,99484.09
2017-12-15T15:26:51.634Z,99482.70
2017-12-15T15:29:19.183Z,99492.28
2017-12-15T15:31:46.719Z,99488.55
2017-12-15T15:34:14.253Z,99493.23
2017-12-15T15:36:41.813Z,99492.53
2017-12-15T15:39:10.090Z,99497.14
2017-12-15T15:41:37.614Z,99503.34
2017-12-15T15:44:05.167Z,99505.22
2017-12-15T15:46:32.706Z,99505.22
2017-12-15T15:49:00.262Z,99506.72
2017-12-15T15:51:27.803Z,99507.59
2017-12-15T15:53:55.355Z,99516.46
2017-12-15T15:56:22.906Z,99518.59
2017-12-15T15:58:50.445Z,99524.72
2017-12-15T16:01:17.994Z,99533.12
2017-12-15T16:03:45.526Z,99528.66
2017-12-15T16:06:13.095Z,99525.67
2017-12-15T16:08:40.621Z,99525.58
2017-12-15T16:11:08.186Z,99528.47
2017-12-15T16:13:35.707Z,99527.97
2017-12-15T16:16:03.279Z,99528.50
2017-12-15T16:18:30.773Z,99530.89
2017-12-15T16:20:58.281Z,99545.31
2017-12-15T16:23:25.853Z,99534.07
2017-12-15T16:25:53.375Z,99535.55
2017-12-15T16:28:20.938Z,99537.71
2017-12-15T16:30:48.448Z,99535.43
2017-12-15T16:33:16.066Z,99542.92
2017-12-15T16:35:43.620Z,99545.57
2017-12-15T16:38:11.136Z,99553.13
2017-12-15T16:40:38.768Z,99550.77
2017-12-15T16:43:06.822Z,99556.08
2017-12-15T16:45:34.425Z,99554.19
2017-12-15T16:48:02.002Z,99557.41
2017-12-15T16:50:29.551Z,99548.95
2017-12-15T16:52:57.078Z,99550.31
2017-12-15T16:55:24.654Z,99553.55
2017-12-15T16:57:53.739Z,99551.49
2017-12-15T17:00:21.280Z,99558.42
2017-12-15T17:02:48.803Z,99562.70
2017-12-15T17:05:16.462Z,99565.05
2017-12-15T17:07:44.003Z,99567.17
2017-12-15T17:10:11.548Z,99562.46
2017-12-15T17:12:39.086Z,99563.59
2017-12-15T17:15:06.606Z,99558.76
2017-12-15T17:17:34.157Z,99559.66
2017-12-15T17:20:01.700Z,99559.95
2017-12-15T17:22:29.283Z,99553.73
2017-12-15T17:24:56.869Z,99563.01
2017-12-15T17:27:24.413Z,99563.10
2017-12-15T17:29:51.945Z,99563.62
2017-12-15T17:32:19.478Z,99565.78
2017-12-15T17:34:47.001Z,99571.98
2017-12-15T17:37:14.593Z,99573.70
2017-12-15T17:39:42.104Z,99572.94
2017-12-15T17:42:09.638Z,99575.28
2017-12-15T17:44:37.157Z,99578.64
2017-12-15T17:47:04.678Z,99572.48
2017-12-15T17:49:32.266Z,99574.73
2017-12-15T17:51:59.797Z,99579.07
2017-12-15T17:54:27.318Z,99579.84
2017-12-15T17:56:54.845Z,99580.23
2017-12-15T17:59:23.304Z,99582.49
2017-12-15T18:01:51.820Z,99588.72
2017-12-15T18:04:19.353Z,99594.30
2017-12-15T18:06:46.876Z,99589.24
2017-12-15T18:09:14.403Z,99588.81
2017-12-15T18:11:41.925Z,99597.26
2017-12-15T18:14:09.467Z,99590.72
2017-12-15T18:16:37.070Z,99589.37
2017-12-15T18:19:04.805Z,99594.67
2017-12-15T18:21:32.323Z,99593.34
2017-12-15T18:23:59.865Z,99592.91
2017-12-15T18:26:27.377Z,99597.29
2017-12-15T18:28:54.888Z,99601.17
2017-12-15T18:31:22.461Z,99600.41
2017-12-15T18:33:50.014Z,99603.86
2017-12-15T18:36:17.544Z,99608.17
2017-12-15T18:38:45.098Z,99613.53
2017-12-15T18:41:12.616Z,99611.69
2017-12-15T18:43:40.158Z,99606.50
2017-12-15T18:46:07.746Z,99621.20
2017-12-15T18:48:35.261Z,99621.09
2017-12-15T18:51:02.782Z,99620.81
2017-12-15T18:53:30.298Z,99619.08
2017-12-15T18:55:57.947Z,99619.20
2017-12-15T18:58:25.466Z,99626.72
2017-12-15T19:00:52.988Z,99627.49
2017-12-15T19:03:20.499Z,99630.14
2017-12-15T19:05:48.086Z,99631.53
2017-12-15T19:08:15.789Z,99636.37
2017-12-15T19:10:43.310Z,99638.73
2017-12-15T19:13:10.831Z,99645.27
2017-12-15T19:15:38.347Z,99647.95
2017-12-15T19:18:05.862Z,99643.95
2017-12-15T19:20:33.389Z,99655.81
2017-12-15T19:23:00.914Z,99650.63
2017-12-15T19:25:28.421Z,99648.27
2017-12-15T19:27:55.940Z,99653.11
2017-12-15T19:30:23.459Z,99663.70
2017-12-15T19:32:50.987Z,99666.56
2017-12-15T19:35:18.512Z,99665.24
2017-12-15T19:37:46.020Z,99666.19
2017-12-15T19:40:13.533Z,99667.48
2017-12-15T19:42:41.057Z,99672.23
2017-12-15T19:45:08.641Z,99677.54
2017-12-15T19:47:36.182Z,99678.75
2017-12-15T19:50:03.703Z,99683.22
2017-12-15T19:52:31.281Z,99686.36
2017-12-15T19:54:58.816Z,99688.20
2017-12-15T19:57:26.499Z,99692.66
2017-12-15T19:59:54.011Z,99692.58
2017-12-15T20:02:21.529Z,99696.35
2017-12-15T20:04:49.147Z,99691.11
2017-12-15T20:07:16.702Z,99689.84
2017-12-15T20:09:44.249Z,99692.06
2017-12-15T20:12:11.760Z,99695.95
2017-12-15T20:14:39.270Z,99702.26
2017-12-15T20:17:06.854Z,99695.52
2017-12-15T20:19:34.407Z,99699.98
2017-12-15T20:22:02.916Z,99695.09
2017-12-15T20:24:30.444Z,99693.38
2017-12-15T20:26:57.989Z,99696.64
2017-12-15T20:29:25.517Z,99693.67
2017-12-15T20:31:53.129Z,99694.30
2017-12-15T20:34:20.683Z,99697.85
2017-12-15T20:36:48.233Z,99694.73
2017-12-15T20:39:15.754Z,99693.59
2017-12-15T20:41:43.274Z,99700.47
2017-12-15T20:44:10.817Z,99704.25
2017-12-15T20:46:38.396Z,99708.56
2017-12-15T20:49:05.920Z,99712.72
2017-12-15T20:51:33.459Z,99714.56
2017-12-15T20:54:00.983Z,99722.39
2017-12-15T20:56:28.500Z,99720.66
2017-12-15T20:58:56.015Z,99719.80
2017-12-15T21:01:23.537Z,99726.45
2017-12-15T21:03:51.067Z,99722.39
2017-12-15T21:06:18.731Z,99720.17
2017-12-15T21:08:46.266Z,99722.56
2017-12-15T21:11:13.789Z,99720.75
2017-12-15T21:13:41.340Z,99721.98
2017-12-15T21:16:08.856Z,99718.53
2017-12-15T21:18:36.386Z,99726.16
2017-12-15T21:21:03.896Z,99728.59
2017-12-15T21:23:31.413Z,99725.73
2017-12-15T21:25:58.938Z,99733.10
2017-12-15T21:28:26.444Z,99729.35
2017-12-15T21:30:53.962Z,99725.95
2017-12-15T21:33:21.474Z,99731.57
2017-12-15T21:35:48.998Z,99735.72
2017-12-15T21:38:16.586Z,99734.73
2017-12-15T21:40:44.106Z,99739.09
2017-12-15T21:43:11.724Z,99736.50
2017-12-15T21:45:39.238Z,99743.50
2017-12-15T21:48:07.917Z,99744.77
2017-12-15T21:50:35.474Z,99749.76
2017-12-15T21:53:02.999Z,99750.55
2017-12-15T21:55:30.546Z,99750.26
2017-12-15T21:57:58.934Z,99748.39
2017-12-15T22:00:26.448Z,99755.88
2017-12-15T22:02:54.203Z,99756.77
2017-12-15T22:05:21.837Z,99757.55
2017-12-15T22:07:49.920Z,99760.34
2017-12-15T22:10:17.466Z,99760.28
2017-12-15T22:12:45.009Z,99759.50
2017-12-15T22:15:12.554Z,99765.27
2017-12-15T22:17:40.092Z,99767.67
2017-12-15T22:20:07.619Z,99773.20
2017-12-15T22:22:35.281Z,99770.27
2017-12-15T22:25:02.798Z,99774.94
2017-12-15T22:27:30.456Z,99774.91
2017-12-15T22:29:57.981Z,99789.64
2017-12-15T22:32:25.514Z,99788.65
2017-12-15T22:34:53.122Z,99786.08
2017-12-15T22:37:20.641Z,99791.64
2017-12-15T22:39:48.282Z,99793.43
2017-12-15T22:42:15.838Z,99795.73
2017-12-15T22:44:43.374Z,99798.35
2017-12-15T22:47:10.897Z,99798.73
2017-12-15T22:49:38.429Z,99799.14
2017-12-15T22:52:05.940Z,99801.41
2017-12-15T22:54:33.479Z,99796.92
2017-12-15T22:57:01.122Z,99792.16
2017-12-15T22:59:28.658Z,99789.02
2017-12-15T23:01:56.180Z,99793.83
2017-12-15T23:04:23.720Z,99798.27
2017-12-15T23:06:51.254Z,99801.66
2017-12-15T23:09:18.782Z,99799.22
2017-12-15T23:11:46.306Z,99805.78
2017-12-15T23:14:13.850Z,99799.14
2017-12-15T23:16:41.398Z,99807.03
2017-12-15T23:19:08.932Z,99807.20
2017-12-15T23:21:36.464Z,99801.75
2017-12-15T23:24:03.989Z,99804.09
2017-12-15T23:26:31.506Z,99811.17
2017-12-15T23:28:59.041Z,99813.48
2017-12-15T23:31:26.582Z,99804.95
2017-12-15T23:33:54.238Z,99806.98
2017-12-15T23:36:21.779Z,99812.72
2017-12-15T23:38:49.314Z,99808.06
2017-12-15T23:41:16.853Z,99811.95
2017-12-15T23:43:44.392Z,99813.73
2017-12-15T23:46:11.934Z,99808.28
2017-12-15T23:48:39.472Z,99811.73
2017-12-15T23:51:07.008Z,99810.01
2017-12-15T23:53:34.538Z,99812.28
2017-12-15T23:56:13.779Z,99810.01
2017-12-15T23:58:41.306Z,99813.50
